Time;durP1;ratioP1;P1;durP2;ratioP2;P2;SDS_P1;SDS_P2;PMS_P1;PMS_P2;Temp;Humidity;BMP_temperature;BMP_pressure;BME280_temperature;BME280_humidity;BME280_pressure;Samples;Min_cycle;Max_cycle;Signal;HPM_P1;HPM_P2
2021/12/18 00:00:44;;;;;;;4.43;1.20;;;6.90;99.90;;;;;;4950654;28;20062;-29
2021/12/18 00:03:09;;;;;;;4.87;1.37;;;6.90;99.90;;;;;;4964375;28;20046;-29
2021/12/18 00:05:35;;;;;;;5.00;1.50;;;6.90;99.90;;;;;;4966678;28;20383;-29
2021/12/18 00:08:01;;;;;;;5.47;2.10;;;7.00;99.90;;;;;;4949639;28;20283;-28
2021/12/18 00:10:29;;;;;;;6.70;1.80;;;6.90;99.90;;;;;;4965553;28;20038;-29
2021/12/18 00:12:54;;;;;;;7.37;2.30;;;6.90;99.90;;;;;;4968578;28;20410;-29
2021/12/18 00:15:23;;;;;;;6.37;1.90;;;6.90;99.90;;;;;;4967497;28;20050;-29
2021/12/18 00:17:48;;;;;;;5.63;1.70;;;6.90;99.90;;;;;;4950995;28;20411;-29
2021/12/18 00:20:15;;;;;;;8.57;1.53;;;6.90;99.90;;;;;;4967900;28;20046;-29
2021/12/18 00:22:42;;;;;;;7.53;1.60;;;6.90;99.90;;;;;;4965503;28;20462;-29
2021/12/18 00:25:09;;;;;;;12.07;1.77;;;6.90;99.90;;;;;;4967495;28;20047;-29
2021/12/18 00:27:34;;;;;;;4.33;1.63;;;6.90;99.90;;;;;;4954933;28;20047;-28
2021/12/18 00:30:01;;;;;;;6.03;1.50;;;6.90;99.90;;;;;;4967261;28;20043;-29
2021/12/18 00:32:26;;;;;;;8.23;1.87;;;6.80;99.90;;;;;;4970324;28;20499;-28
2021/12/18 00:34:52;;;;;;;8.70;1.57;;;6.90;99.90;;;;;;4963541;28;20047;-28
2021/12/18 00:37:18;;;;;;;7.00;1.97;;;6.80;99.90;;;;;;4940759;28;20497;-28
2021/12/18 00:39:54;;;;;;;7.13;2.17;;;6.80;99.90;;;;;;4964445;28;20046;-28
2021/12/18 00:42:35;;;;;;;5.87;2.00;;;6.80;99.90;;;;;;4963471;28;20046;-29
2021/12/18 00:45:02;;;;;;;7.63;1.90;;;6.80;99.90;;;;;;4949868;28;20127;-29
2021/12/18 00:47:28;;;;;;;6.17;1.90;;;6.80;99.90;;;;;;4950757;28;20043;-29
2021/12/18 00:49:54;;;;;;;6.77;1.60;;;6.80;99.90;;;;;;4965805;28;20495;-28
2021/12/18 00:52:19;;;;;;;4.70;1.37;;;6.70;99.90;;;;;;4947433;28;20041;-28
2021/12/18 00:54:45;;;;;;;5.07;1.60;;;6.70;99.90;;;;;;4965689;28;20050;-28
2021/12/18 00:57:11;;;;;;;5.43;1.37;;;6.70;99.90;;;;;;4953776;28;20109;-28
2021/12/18 00:59:37;;;;;;;5.70;1.27;;;6.80;99.90;;;;;;4948339;28;20490;-29
2021/12/18 01:02:03;;;;;;;5.37;1.43;;;6.80;99.90;;;;;;4949361;28;20047;-29
2021/12/18 01:04:29;;;;;;;4.37;1.50;;;6.70;99.90;;;;;;4965648;28;20061;-28
2021/12/18 01:06:55;;;;;;;6.10;1.30;;;6.80;99.90;;;;;;4949472;28;20042;-29
2021/12/18 01:09:29;;;;;;;5.33;1.30;;;6.70;99.90;;;;;;4963779;28;20042;-28
2021/12/18 01:11:55;;;;;;;3.93;1.10;;;6.70;99.90;;;;;;4968072;28;20061;-29
2021/12/18 01:14:33;;;;;;;2.60;1.00;;;6.70;99.90;;;;;;4970876;28;20080;-28
2021/12/18 01:22:43;;;;;;;2.13;0.70;;;6.70;99.90;;;;;;4959899;28;20057;-28
2021/12/18 01:22:47;;;;;;;2.87;0.53;;;6.70;99.90;;;;;;4975273;28;20039;-29
2021/12/18 01:25:15;;;;;;;3.47;0.90;;;6.70;99.90;;;;;;4990745;28;20051;-28
2021/12/18 01:27:41;;;;;;;3.50;0.90;;;6.70;99.90;;;;;;4960862;28;20058;-29
2021/12/18 01:30:09;;;;;;;3.60;1.03;;;6.70;99.90;;;;;;4974687;28;20094;-29
2021/12/18 01:32:35;;;;;;;4.83;1.40;;;6.70;99.90;;;;;;4974857;28;20070;-29
2021/12/18 01:35:01;;;;;;;4.10;1.70;;;6.70;99.90;;;;;;4977191;28;20062;-29
2021/12/18 01:37:27;;;;;;;5.13;1.83;;;6.70;99.90;;;;;;4964895;28;20043;-28
2021/12/18 01:39:54;;;;;;;5.30;1.70;;;6.60;99.90;;;;;;4977358;28;20043;-29
2021/12/18 01:52:41;;;;;;;4.03;1.87;;;6.60;99.90;;;;;;4975267;28;20049;-28
2021/12/18 01:55:09;;;;;;;3.20;1.67;;;6.60;99.90;;;;;;4977451;28;20042;-29
2021/12/18 01:57:35;;;;;;;7.53;1.90;;;6.60;99.90;;;;;;4960206;28;20646;-29
2021/12/18 02:00:00;;;;;;;2.67;1.53;;;6.60;99.90;;;;;;4975793;28;20035;-29
2021/12/18 02:02:27;;;;;;;2.47;1.30;;;6.60;99.90;;;;;;4968700;28;20105;-29
2021/12/18 02:04:52;;;;;;;5.50;1.43;;;6.60;99.90;;;;;;4967184;28;20403;-28
2021/12/18 02:07:18;;;;;;;3.10;1.20;;;6.60;99.90;;;;;;4959767;28;20050;-28
2021/12/18 02:12:21;;;;;;;2.47;1.07;;;6.60;99.90;;;;;;4978966;28;20054;-28
2021/12/18 02:22:56;;;;;;;2.37;0.60;;;6.60;99.90;;;;;;4967632;28;20069;-28
2021/12/18 02:25:24;;;;;;;2.40;0.70;;;6.60;99.90;;;;;;4966999;28;20505;-29
2021/12/18 02:27:51;;;;;;;3.30;0.83;;;6.60;99.90;;;;;;4955140;28;20133;-29
2021/12/18 02:30:21;;;;;;;3.07;0.90;;;6.60;99.90;;;;;;4970488;28;20046;-28
2021/12/18 02:32:48;;;;;;;2.93;0.73;;;6.80;99.90;;;;;;4967515;28;20404;-28
2021/12/18 02:35:29;;;;;;;1.47;0.80;;;6.60;99.90;;;;;;4966195;28;20112;-29
2021/12/18 02:38:12;;;;;;;1.90;0.80;;;6.60;99.90;;;;;;4953590;28;20059;-29
2021/12/18 02:43:17;;;;;;;1.77;0.80;;;6.60;99.90;;;;;;4969694;28;20126;-28
2021/12/18 02:45:43;;;;;;;3.10;1.00;;;6.60;99.90;;;;;;4955288;28;20121;-28
2021/12/18 02:48:09;;;;;;;3.60;0.70;;;6.70;99.90;;;;;;4954740;28;20039;-28
2021/12/18 02:50:39;;;;;;;6.13;0.93;;;6.60;99.90;;;;;;4966347;28;20574;-29
2021/12/18 02:53:07;;;;;;;2.73;1.00;;;6.60;99.90;;;;;;4965175;28;20057;-29
2021/12/18 02:55:33;;;;;;;6.73;0.77;;;6.60;99.90;;;;;;4967190;28;20042;-28
2021/12/18 02:57:58;;;;;;;1.53;0.70;;;6.60;99.90;;;;;;4942065;28;20057;-29
2021/12/18 03:00:26;;;;;;;2.97;0.87;;;6.60;99.90;;;;;;4959084;28;20521;-28
2021/12/18 03:02:52;;;;;;;2.47;0.80;;;6.60;99.90;;;;;;4964862;28;20533;-28
2021/12/18 03:05:25;;;;;;;2.07;0.70;;;6.60;99.90;;;;;;4953689;28;20049;-29
2021/12/18 03:07:58;;;;;;;1.87;0.90;;;6.60;99.90;;;;;;4952509;28;20039;-28
2021/12/18 03:26:53;;;;;;;6.47;1.50;;;6.60;99.90;;;;;;4955054;28;20129;-29
2021/12/18 03:29:19;;;;;;;5.63;1.70;;;6.60;99.90;;;;;;4969263;28;20145;-29
2021/12/18 03:31:45;;;;;;;5.33;1.60;;;6.60;99.90;;;;;;4976029;28;20199;-29
2021/12/18 03:34:10;;;;;;;3.87;1.10;;;6.60;99.90;;;;;;4972999;28;20232;-28
2021/12/18 03:36:36;;;;;;;4.80;1.57;;;6.60;99.90;;;;;;4960250;28;20058;-29
2021/12/18 03:39:03;;;;;;;4.30;1.30;;;6.60;99.90;;;;;;4970882;28;20050;-29
2021/12/18 03:41:29;;;;;;;4.40;1.50;;;6.60;99.90;;;;;;4964820;28;20038;-28
2021/12/18 03:43:55;;;;;;;6.73;1.53;;;6.70;99.90;;;;;;4970023;28;20412;-28
2021/12/18 03:46:20;;;;;;;4.57;1.50;;;6.70;99.90;;;;;;4955299;28;20126;-29
2021/12/18 03:48:46;;;;;;;3.30;1.20;;;6.70;99.90;;;;;;4949908;28;20530;-28
2021/12/18 03:51:12;;;;;;;4.00;1.30;;;6.70;99.90;;;;;;4964278;28;20780;-29
2021/12/18 03:53:38;;;;;;;4.87;1.30;;;6.70;99.90;;;;;;4967500;28;20104;-28
2021/12/18 03:56:04;;;;;;;4.33;1.43;;;6.70;99.90;;;;;;4966128;28;20215;-29
2021/12/18 03:58:30;;;;;;;7.43;1.77;;;6.70;99.90;;;;;;4933027;28;20669;-29
2021/12/18 04:00:56;;;;;;;2.80;1.47;;;6.70;99.90;;;;;;4969006;28;20050;-28
2021/12/18 04:03:21;;;;;;;3.80;1.57;;;6.70;99.90;;;;;;4966511;28;20494;-28
2021/12/18 04:05:47;;;;;;;2.43;1.40;;;6.70;99.90;;;;;;4966231;28;20503;-28
2021/12/18 04:08:13;;;;;;;3.90;1.53;;;6.70;99.90;;;;;;4951407;28;20541;-29
2021/12/18 04:10:40;;;;;;;3.53;1.50;;;6.80;99.90;;;;;;4968355;28;20075;-28
2021/12/18 04:13:07;;;;;;;5.03;1.70;;;6.80;99.90;;;;;;4963663;28;20042;-28
2021/12/18 04:15:34;;;;;;;5.30;1.97;;;6.80;99.90;;;;;;4948967;28;20047;-29
2021/12/18 04:18:00;;;;;;;5.67;2.00;;;6.80;99.90;;;;;;4932991;28;20093;-29
2021/12/18 04:20:25;;;;;;;4.47;2.00;;;6.80;99.90;;;;;;4965172;28;20142;-28
2021/12/18 04:22:51;;;;;;;5.60;1.87;;;6.80;99.90;;;;;;4939311;28;20062;-29
2021/12/18 04:25:18;;;;;;;4.53;2.13;;;6.80;99.90;;;;;;4971171;28;20514;-29
2021/12/18 04:27:43;;;;;;;5.57;2.07;;;6.90;99.90;;;;;;4954384;28;20074;-29
2021/12/18 04:30:10;;;;;;;4.67;2.00;;;6.90;99.90;;;;;;4954353;28;20078;-29
2021/12/18 04:32:35;;;;;;;7.73;2.80;;;6.90;99.90;;;;;;4966008;28;20046;-29
2021/12/18 04:35:01;;;;;;;5.57;2.60;;;6.90;99.90;;;;;;4965373;28;20055;-28
2021/12/18 04:37:27;;;;;;;6.63;3.03;;;6.90;99.90;;;;;;4951597;28;20117;-29
2021/12/18 04:39:52;;;;;;;8.63;3.13;;;6.90;99.90;;;;;;4964167;28;20046;-29
2021/12/18 04:42:20;;;;;;;7.83;3.30;;;6.90;99.90;;;;;;4964934;28;20077;-28
2021/12/18 04:44:46;;;;;;;6.97;3.13;;;6.80;99.90;;;;;;4964943;28;20458;-29
2021/12/18 04:47:12;;;;;;;6.90;3.40;;;6.90;99.90;;;;;;4942413;28;20034;-28
2021/12/18 04:49:37;;;;;;;8.63;4.20;;;6.90;99.90;;;;;;4974696;28;20449;-29
2021/12/18 04:52:04;;;;;;;9.30;4.03;;;6.90;99.90;;;;;;4967049;28;20047;-32
2021/12/18 04:54:30;;;;;;;10.67;4.77;;;6.90;99.90;;;;;;4957102;28;20540;-29
2021/12/18 04:56:56;;;;;;;10.47;4.90;;;7.00;99.90;;;;;;4953578;28;20054;-29
2021/12/18 04:59:22;;;;;;;11.67;4.60;;;7.00;99.90;;;;;;4968433;28;20648;-29
2021/12/18 05:01:51;;;;;;;17.23;5.37;;;7.00;99.90;;;;;;4972478;28;20117;-29
2021/12/18 05:04:16;;;;;;;10.33;4.87;;;7.00;99.90;;;;;;4970428;28;20039;-28
2021/12/18 05:06:45;;;;;;;10.93;5.03;;;7.00;99.90;;;;;;4957297;28;20045;-28
2021/12/18 05:09:12;;;;;;;14.67;5.67;;;7.00;99.90;;;;;;4973466;28;20093;-29
2021/12/18 05:11:38;;;;;;;11.87;5.20;;;7.00;99.90;;;;;;4973003;28;20053;-28
2021/12/18 05:14:04;;;;;;;13.40;5.63;;;7.00;99.90;;;;;;4971116;28;20073;-28
2021/12/18 05:16:29;;;;;;;12.37;5.73;;;7.00;99.90;;;;;;4961860;28;20517;-28
2021/12/18 05:18:55;;;;;;;11.03;5.83;;;7.00;99.90;;;;;;4968060;28;20087;-29
2021/12/18 05:21:21;;;;;;;13.30;5.73;;;7.10;99.90;;;;;;4969936;28;20046;-29
2021/12/18 05:23:46;;;;;;;10.23;5.27;;;7.10;99.90;;;;;;4967462;28;20042;-29
2021/12/18 05:26:12;;;;;;;11.03;5.53;;;7.10;99.90;;;;;;4964087;28;20405;-30
2021/12/18 05:28:38;;;;;;;14.43;5.83;;;7.10;99.90;;;;;;4968597;28;20046;-28
2021/12/18 05:31:04;;;;;;;16.13;6.17;;;7.10;99.90;;;;;;4974647;28;20093;-29
2021/12/18 05:33:29;;;;;;;13.90;6.13;;;7.10;99.90;;;;;;4976423;28;20502;-29
2021/12/18 05:35:55;;;;;;;9.60;4.90;;;7.10;99.90;;;;;;4979423;28;20054;-29
2021/12/18 05:38:21;;;;;;;11.10;5.77;;;7.20;99.90;;;;;;4943064;28;20041;-29
2021/12/18 05:40:46;;;;;;;12.67;5.50;;;7.20;99.90;;;;;;4970964;28;20133;-28
2021/12/18 05:43:12;;;;;;;8.87;4.40;;;7.20;99.90;;;;;;4966684;28;20078;-29
2021/12/18 05:45:38;;;;;;;14.33;4.50;;;7.20;99.90;;;;;;4950778;28;21108;-29
2021/12/18 05:48:04;;;;;;;10.33;4.90;;;7.20;99.90;;;;;;4954041;28;20109;-29
2021/12/18 05:50:30;;;;;;;10.30;4.33;;;7.20;99.90;;;;;;4966672;28;20056;-29
2021/12/18 05:52:58;;;;;;;9.80;4.17;;;7.30;99.90;;;;;;4969199;28;20128;-29
2021/12/18 05:55:25;;;;;;;11.23;4.70;;;7.30;99.90;;;;;;4971040;28;20117;-29
2021/12/18 05:57:51;;;;;;;10.43;3.93;;;7.30;99.90;;;;;;4953935;28;20070;-29
2021/12/18 06:00:19;;;;;;;11.53;4.37;;;7.30;99.90;;;;;;4973041;28;20054;-29
2021/12/18 06:02:45;;;;;;;13.23;4.33;;;7.40;99.90;;;;;;4959159;28;20141;-29
2021/12/18 06:05:10;;;;;;;11.60;3.90;;;7.30;99.90;;;;;;4956584;28;20051;-29
2021/12/18 06:07:57;;;;;;;11.67;3.87;;;7.30;99.90;;;;;;4962132;28;20058;-29
2021/12/18 06:10:25;;;;;;;10.07;3.70;;;7.40;99.90;;;;;;4960020;28;20502;-29
2021/12/18 06:12:51;;;;;;;7.73;3.73;;;7.40;99.90;;;;;;4964410;28;20050;-28
2021/12/18 06:15:17;;;;;;;11.40;4.00;;;7.30;99.90;;;;;;4968494;28;20057;-29
2021/12/18 06:17:43;;;;;;;9.87;4.73;;;7.40;99.90;;;;;;4952718;28;20521;-29
2021/12/18 06:20:10;;;;;;;12.73;4.60;;;7.40;99.90;;;;;;4966580;28;20958;-29
2021/12/18 06:22:35;;;;;;;14.40;4.53;;;7.40;99.90;;;;;;4966442;28;20054;-29
2021/12/18 06:25:01;;;;;;;16.10;4.67;;;7.40;99.90;;;;;;4965960;28;20054;-28
2021/12/18 06:27:27;;;;;;;15.17;4.90;;;7.40;99.90;;;;;;4943040;28;20046;-29
2021/12/18 06:29:53;;;;;;;12.47;4.17;;;7.40;99.90;;;;;;4969601;28;20053;-28
2021/12/18 06:32:18;;;;;;;13.23;4.60;;;7.40;99.90;;;;;;4966645;28;20075;-29
2021/12/18 06:34:44;;;;;;;12.80;4.37;;;7.40;99.90;;;;;;4967684;28;20050;-29
2021/12/18 06:37:09;;;;;;;13.53;4.23;;;7.40;99.90;;;;;;4935578;28;20089;-29
2021/12/18 06:39:35;;;;;;;13.73;4.20;;;7.50;99.90;;;;;;4966345;28;20047;-29
2021/12/18 06:42:01;;;;;;;14.13;4.27;;;7.50;99.90;;;;;;4970722;28;20086;-29
2021/12/18 06:44:28;;;;;;;16.63;5.03;;;7.50;99.90;;;;;;4967623;28;20138;-29
2021/12/18 06:46:56;;;;;;;13.03;4.90;;;7.60;99.90;;;;;;4951873;28;20035;-29
2021/12/18 06:49:22;;;;;;;18.50;5.67;;;7.50;99.90;;;;;;4965812;28;20462;-28
2021/12/18 06:51:48;;;;;;;13.23;5.40;;;7.60;99.90;;;;;;4965057;28;20555;-28
2021/12/18 06:54:13;;;;;;;14.93;5.07;;;7.50;99.90;;;;;;4964135;28;20420;-29
2021/12/18 06:56:39;;;;;;;15.83;5.20;;;7.60;99.90;;;;;;4955056;28;20398;-29
2021/12/18 06:59:05;;;;;;;15.57;5.27;;;7.50;99.90;;;;;;4965610;28;20450;-29
2021/12/18 07:01:31;;;;;;;13.77;4.70;;;7.50;99.90;;;;;;4969150;28;20043;-28
2021/12/18 07:03:56;;;;;;;15.37;5.17;;;7.50;99.90;;;;;;4971829;28;20088;-29
2021/12/18 07:06:22;;;;;;;11.47;5.17;;;7.50;99.90;;;;;;4956451;28;20042;-29
2021/12/18 07:08:48;;;;;;;12.33;4.50;;;7.70;99.90;;;;;;4951098;28;20425;-29
2021/12/18 07:11:14;;;;;;;14.20;4.57;;;7.60;99.90;;;;;;4970410;28;20051;-29
2021/12/18 07:13:39;;;;;;;10.97;4.17;;;7.60;99.90;;;;;;4968152;28;20474;-29
2021/12/18 07:16:05;;;;;;;9.70;3.93;;;7.60;99.90;;;;;;4970061;28;20097;-29
2021/12/18 07:18:31;;;;;;;13.70;4.27;;;7.60;99.90;;;;;;4948699;28;20133;-29
2021/12/18 07:20:57;;;;;;;15.47;4.47;;;7.60;99.90;;;;;;4970364;28;20046;-29
2021/12/18 07:23:24;;;;;;;16.93;5.00;;;7.70;99.90;;;;;;4971928;28;20050;-29
2021/12/18 07:25:50;;;;;;;10.13;4.50;;;7.60;99.90;;;;;;4976076;28;20461;-29
2021/12/18 07:28:16;;;;;;;10.70;3.90;;;7.60;99.90;;;;;;4964658;28;20090;-29
2021/12/18 07:30:42;;;;;;;10.63;3.93;;;7.70;99.90;;;;;;4972437;28;20116;-29
2021/12/18 07:33:10;;;;;;;17.27;4.27;;;7.70;99.90;;;;;;4978779;28;20058;-29
2021/12/18 07:35:40;;;;;;;9.27;3.60;;;7.70;99.90;;;;;;4976848;28;20402;-29
2021/12/18 07:38:07;;;;;;;13.50;3.67;;;7.70;99.90;;;;;;4958980;28;20916;-29
2021/12/18 07:40:33;;;;;;;14.23;3.87;;;7.70;99.90;;;;;;4973310;28;20195;-29
2021/12/18 07:42:59;;;;;;;12.27;3.30;;;7.70;99.90;;;;;;4970986;28;20053;-29
2021/12/18 07:45:25;;;;;;;9.80;2.60;;;7.70;99.90;;;;;;4973974;28;20408;-29
2021/12/18 07:47:50;;;;;;;11.10;3.10;;;7.60;99.90;;;;;;4957082;28;20081;-29
2021/12/18 07:50:20;;;;;;;13.23;3.30;;;7.80;99.90;;;;;;4974264;28;20154;-29
2021/12/18 07:52:50;;;;;;;9.80;3.10;;;7.60;99.90;;;;;;4972554;28;20061;-29
2021/12/18 07:55:17;;;;;;;12.37;3.67;;;7.70;99.90;;;;;;4971481;28;20043;-29
2021/12/18 07:57:43;;;;;;;11.40;2.83;;;7.70;99.90;;;;;;4973477;28;20066;-29
2021/12/18 08:00:12;;;;;;;17.23;4.13;;;7.80;99.90;;;;;;4969610;28;20437;-29
2021/12/18 08:02:38;;;;;;;14.60;3.77;;;7.80;99.90;;;;;;4974048;28;20454;-29
2021/12/18 08:05:05;;;;;;;13.57;4.23;;;7.80;99.90;;;;;;4973531;28;20053;-29
2021/12/18 08:07:31;;;;;;;15.93;3.90;;;7.80;99.90;;;;;;4958779;28;20321;-29
2021/12/18 08:09:56;;;;;;;12.37;4.03;;;7.80;99.90;;;;;;4977419;28;20488;-29
2021/12/18 08:12:22;;;;;;;11.07;3.50;;;7.80;99.90;;;;;;4973382;28;20055;-29
2021/12/18 08:14:48;;;;;;;12.13;3.40;;;7.80;99.90;;;;;;4975482;28;20125;-29
2021/12/18 08:17:14;;;;;;;13.33;3.50;;;7.80;99.90;;;;;;4957221;28;20101;-29
2021/12/18 08:19:40;;;;;;;12.60;3.53;;;7.90;99.90;;;;;;4967189;28;20418;-29
2021/12/18 08:22:06;;;;;;;11.67;3.73;;;7.90;99.90;;;;;;4965492;28;20050;-29
2021/12/18 08:24:32;;;;;;;11.57;3.43;;;7.90;99.90;;;;;;4958786;28;20065;-29
2021/12/18 08:26:58;;;;;;;11.70;3.27;;;7.90;99.90;;;;;;4940196;28;20046;-29
2021/12/18 08:29:23;;;;;;;13.43;3.20;;;7.90;99.90;;;;;;4963818;28;20498;-29
2021/12/18 08:31:51;;;;;;;10.70;3.27;;;7.90;99.90;;;;;;4946129;28;20537;-28
2021/12/18 08:34:19;;;;;;;15.93;3.77;;;7.90;99.90;;;;;;4964792;28;20061;-29
2021/12/18 08:36:45;;;;;;;12.07;3.23;;;7.90;99.90;;;;;;4950628;28;20090;-29
2021/12/18 08:39:11;;;;;;;12.47;3.30;;;7.90;99.90;;;;;;4964181;28;20043;-29
2021/12/18 08:41:38;;;;;;;14.13;3.43;;;7.90;99.90;;;;;;4964506;28;20442;-29
2021/12/18 08:44:04;;;;;;;17.47;3.60;;;8.00;99.90;;;;;;4965213;28;20062;-29
2021/12/18 08:46:30;;;;;;;15.03;3.90;;;8.00;99.90;;;;;;4952088;28;20521;-29
2021/12/18 08:48:56;;;;;;;12.20;3.73;;;8.00;99.90;;;;;;4937684;28;20115;-29
2021/12/18 08:51:21;;;;;;;11.40;3.20;;;8.10;99.90;;;;;;4965395;28;20071;-29
2021/12/18 08:53:47;;;;;;;13.67;3.50;;;8.00;99.90;;;;;;4967186;28;20526;-29
2021/12/18 08:56:13;;;;;;;16.90;3.73;;;8.00;99.90;;;;;;4967333;28;20707;-29
2021/12/18 08:58:39;;;;;;;14.13;3.53;;;8.00;99.90;;;;;;4970745;28;20054;-29
2021/12/18 09:01:04;;;;;;;12.07;3.50;;;8.00;99.90;;;;;;4978800;28;20043;-29
2021/12/18 09:03:31;;;;;;;18.57;4.90;;;8.10;99.90;;;;;;4980037;28;20542;-29
2021/12/18 09:05:57;;;;;;;16.57;4.60;;;8.00;99.90;;;;;;4979031;28;20106;-29
2021/12/18 09:08:22;;;;;;;13.63;4.27;;;8.10;99.90;;;;;;4963528;28;20047;-29
2021/12/18 09:10:48;;;;;;;15.50;4.40;;;8.10;99.90;;;;;;4979352;28;20130;-29
2021/12/18 09:13:14;;;;;;;14.90;4.00;;;8.10;99.90;;;;;;4977570;28;20141;-29
2021/12/18 09:15:40;;;;;;;14.83;4.43;;;8.10;99.90;;;;;;4960605;28;20145;-29
2021/12/18 09:18:06;;;;;;;18.20;4.80;;;8.10;99.90;;;;;;4964465;28;20073;-29
2021/12/18 09:20:32;;;;;;;17.00;4.80;;;8.10;99.90;;;;;;4979211;28;20058;-29
2021/12/18 09:23:00;;;;;;;14.43;5.00;;;8.10;99.90;;;;;;4976509;28;20042;-29
2021/12/18 09:25:26;;;;;;;16.33;5.10;;;8.10;99.90;;;;;;4980694;28;20156;-29
2021/12/18 09:27:52;;;;;;;12.80;4.90;;;8.20;99.90;;;;;;4959051;28;20050;-28
2021/12/18 09:30:17;;;;;;;13.73;4.87;;;8.10;99.90;;;;;;4971704;28;20409;-29
2021/12/18 09:32:43;;;;;;;11.40;4.00;;;8.20;99.90;;;;;;4971630;28;20109;-29
2021/12/18 09:35:11;;;;;;;11.17;4.73;;;8.10;99.90;;;;;;4975344;28;20042;-30
2021/12/18 09:37:37;;;;;;;15.03;4.17;;;8.20;99.90;;;;;;4959236;28;20042;-30
2021/12/18 09:40:07;;;;;;;9.63;3.73;;;8.20;99.90;;;;;;4973480;28;20489;-30
2021/12/18 09:42:33;;;;;;;14.13;4.30;;;8.20;99.90;;;;;;4959023;28;20529;-30
2021/12/18 09:44:59;;;;;;;14.13;4.20;;;8.20;99.90;;;;;;4965011;28;20046;-30
2021/12/18 09:47:24;;;;;;;12.20;4.37;;;8.20;99.90;;;;;;4958355;28;20073;-30
2021/12/18 09:49:50;;;;;;;13.67;4.50;;;8.20;99.90;;;;;;4974869;28;20125;-30
2021/12/18 09:52:16;;;;;;;12.70;4.50;;;8.20;99.90;;;;;;4970458;28;20041;-30
2021/12/18 09:54:42;;;;;;;11.57;4.67;;;8.20;99.90;;;;;;4974765;28;20108;-31
2021/12/18 09:57:08;;;;;;;11.70;4.53;;;8.20;99.90;;;;;;4928281;28;20153;-30
2021/12/18 09:59:36;;;;;;;14.93;5.07;;;8.30;99.90;;;;;;4959820;28;20043;-30
2021/12/18 10:02:02;;;;;;;13.37;5.33;;;8.30;99.90;;;;;;4976285;28;20062;-30
2021/12/18 10:04:31;;;;;;;13.93;5.93;;;8.30;99.90;;;;;;4975306;28;20046;-30
2021/12/18 10:06:59;;;;;;;15.93;6.10;;;8.30;99.90;;;;;;4958063;28;20057;-30
2021/12/18 10:09:25;;;;;;;12.17;6.13;;;8.30;99.90;;;;;;4971124;28;20107;-30
2021/12/18 10:12:03;;;;;;;17.03;6.27;;;8.30;99.90;;;;;;4971950;28;20767;-29
2021/12/18 10:14:42;;;;;;;15.33;6.17;;;8.30;99.90;;;;;;4972845;28;20270;-30
2021/12/18 10:17:25;;;;;;;18.10;6.13;;;8.30;99.90;;;;;;4939602;28;20058;-30
2021/12/18 10:19:53;;;;;;;15.87;6.20;;;8.30;99.90;;;;;;4967489;28;20069;-30
2021/12/18 10:22:19;;;;;;;13.33;5.30;;;8.30;99.90;;;;;;4969731;28;20450;-30
2021/12/18 10:24:59;;;;;;;16.63;5.43;;;8.20;99.90;;;;;;4971713;28;20055;-30
2021/12/18 10:27:26;;;;;;;11.97;5.07;;;8.30;99.90;;;;;;4959531;28;20046;-30
2021/12/18 10:30:06;;;;;;;7.53;3.83;;;8.40;99.90;;;;;;4976234;28;20059;-31
2021/12/18 10:32:32;;;;;;;13.77;3.70;;;8.30;99.90;;;;;;4972564;28;20061;-30
2021/12/18 10:34:59;;;;;;;9.90;4.00;;;8.40;99.90;;;;;;4977381;28;20575;-30
2021/12/18 10:37:24;;;;;;;11.03;3.70;;;8.40;99.90;;;;;;4941697;28;20513;-30
2021/12/18 10:39:50;;;;;;;11.73;3.80;;;8.40;99.90;;;;;;4974844;28;20057;-30
2021/12/18 10:42:18;;;;;;;10.53;3.63;;;8.40;99.90;;;;;;4975890;28;20457;-30
2021/12/18 10:44:59;;;;;;;10.27;3.77;;;8.40;99.90;;;;;;4975918;28;20067;-30
2021/12/18 10:47:26;;;;;;;11.30;3.27;;;8.40;99.90;;;;;;4955872;28;20109;-30
2021/12/18 10:49:52;;;;;;;13.67;4.10;;;8.40;99.90;;;;;;4976949;28;20312;-30
2021/12/18 10:52:34;;;;;;;12.40;3.67;;;8.40;99.90;;;;;;4960035;28;20154;-29
2021/12/18 10:55:04;;;;;;;8.57;3.83;;;8.40;99.90;;;;;;4968680;28;20035;-30
2021/12/18 10:57:30;;;;;;;12.77;3.07;;;8.40;99.90;;;;;;4945353;28;20199;-30
2021/12/18 10:59:58;;;;;;;14.43;3.30;;;8.50;99.90;;;;;;4948261;28;20398;-30
2021/12/18 11:02:27;;;;;;;13.40;3.40;;;8.40;99.90;;;;;;4971019;28;20386;-31
2021/12/18 11:05:16;;;;;;;8.87;3.03;;;8.50;99.90;;;;;;4964986;28;20493;-30
2021/12/18 11:07:44;;;;;;;14.57;3.33;;;8.50;99.90;;;;;;4942738;28;20054;-30
2021/12/18 11:10:42;;;;;;;14.13;3.50;;;8.50;99.90;;;;;;4981526;28;20038;-30
2021/12/18 11:15:55;;;;;;;17.43;3.47;;;8.50;99.90;;;;;;4971780;28;20051;-30
2021/12/18 11:18:21;;;;;;;7.83;2.93;;;8.50;99.90;;;;;;4943310;28;20498;-30
2021/12/18 11:20:50;;;;;;;7.37;3.00;;;8.50;99.90;;;;;;4976391;28;20054;-30
2021/12/18 11:23:24;;;;;;;13.13;3.60;;;8.50;99.90;;;;;;4960074;28;20069;-30
2021/12/18 11:25:54;;;;;;;9.63;2.97;;;8.60;99.90;;;;;;4978451;28;20046;-30
2021/12/18 11:28:25;;;;;;;13.33;3.33;;;8.60;99.90;;;;;;4960980;28;20053;-30
2021/12/18 11:30:51;;;;;;;13.25;3.10;;;8.60;99.90;;;;;;4975014;28;20414;-31
2021/12/18 11:33:17;;;;;;;11.30;3.13;;;8.60;99.90;;;;;;4960182;28;20045;-30
2021/12/18 11:35:43;;;;;;;9.43;2.90;;;8.60;99.90;;;;;;4978630;28;20095;-30
2021/12/18 11:38:11;;;;;;;15.80;3.07;;;8.60;99.90;;;;;;4932607;28;20523;-30
2021/12/18 11:40:39;;;;;;;15.80;3.17;;;8.60;99.90;;;;;;4979634;28;20386;-30
2021/12/18 11:43:28;;;;;;;9.70;3.23;;;8.60;99.90;;;;;;4979068;28;20045;-30
2021/12/18 11:45:54;;;;;;;12.20;3.20;;;8.60;99.90;;;;;;4981045;28;20054;-30
2021/12/18 11:48:20;;;;;;;11.00;3.47;;;8.70;99.90;;;;;;4958018;28;20046;-30
2021/12/18 11:50:47;;;;;;;10.20;3.23;;;8.70;99.90;;;;;;4961517;28;20058;-31
2021/12/18 11:53:14;;;;;;;11.97;2.90;;;8.70;99.90;;;;;;4964693;28;20564;-30
2021/12/18 11:55:48;;;;;;;12.50;3.20;;;8.70;99.90;;;;;;4962965;28;20046;-30
2021/12/18 11:58:18;;;;;;;8.70;3.00;;;8.70;99.90;;;;;;4941702;28;20073;-30
2021/12/18 12:00:44;;;;;;;16.10;3.17;;;8.70;99.90;;;;;;4979605;28;20042;-30
2021/12/18 12:03:14;;;;;;;8.13;2.77;;;8.80;99.90;;;;;;4978692;28;20054;-30
2021/12/18 12:05:44;;;;;;;11.47;2.90;;;8.80;99.90;;;;;;4977132;28;20039;-31
2021/12/18 12:08:40;;;;;;;11.25;1.83;;;8.80;99.90;;;;;;4943413;28;20532;-30
2021/12/18 12:11:16;;;;;;;11.27;3.00;;;8.80;99.90;;;;;;4967894;28;20070;-31
2021/12/18 12:13:54;;;;;;;11.00;3.20;;;8.80;99.90;;;;;;4958205;28;20046;-30
2021/12/18 12:16:42;;;;;;;10.63;3.30;;;8.80;99.90;;;;;;4966387;28;20049;-29
2021/12/18 12:19:24;;;;;;;10.43;3.43;;;8.80;99.90;;;;;;4977397;28;20057;-30
2021/12/18 12:21:55;;;;;;;11.17;3.03;;;8.80;99.90;;;;;;4977977;28;20058;-30
2021/12/18 12:24:23;;;;;;;14.38;3.22;;;8.80;99.90;;;;;;4962003;28;20050;-30
2021/12/18 12:26:50;;;;;;;13.70;3.40;;;8.80;99.90;;;;;;4964762;28;20050;-30
2021/12/18 12:29:17;;;;;;;14.53;3.33;;;8.80;99.90;;;;;;4978913;28;20066;-30
2021/12/18 12:32:07;;;;;;;14.53;3.90;;;8.80;99.90;;;;;;4960623;28;20510;-30
2021/12/18 12:34:35;;;;;;;14.87;4.10;;;8.80;99.90;;;;;;4962896;28;20390;-30
2021/12/18 12:37:23;;;;;;;12.93;4.70;;;8.90;99.90;;;;;;4962292;28;20047;-30
2021/12/18 12:39:59;;;;;;;13.47;4.90;;;8.80;99.90;;;;;;4978656;28;20637;-31
2021/12/18 12:42:24;;;;;;;13.97;5.33;;;8.80;99.90;;;;;;4977345;28;20414;-30
2021/12/18 12:44:59;;;;;;;14.07;6.73;;;8.80;99.90;;;;;;4976377;28;20058;-31
2021/12/18 12:47:27;;;;;;;13.80;6.10;;;8.80;99.90;;;;;;4938590;28;20529;-30
2021/12/18 12:50:00;;;;;;;13.43;5.00;;;8.80;99.90;;;;;;4974339;28;20038;-30
2021/12/18 12:52:28;;;;;;;12.87;3.97;;;8.80;99.90;;;;;;4975329;28;20473;-30
2021/12/18 12:54:59;;;;;;;13.87;3.50;;;8.80;99.90;;;;;;4974856;28;20051;-30
2021/12/18 12:57:27;;;;;;;12.90;3.27;;;8.80;99.90;;;;;;4958420;28;20795;-31
2021/12/18 12:59:59;;;;;;;14.03;3.20;;;8.90;99.90;;;;;;4963660;28;20046;-30
2021/12/18 13:02:26;;;;;;;8.87;2.40;;;8.80;99.90;;;;;;4974981;28;20541;-30
2021/12/18 13:05:01;;;;;;;10.37;2.97;;;8.80;99.90;;;;;;4976496;28;20061;-30
2021/12/18 13:07:27;;;;;;;11.07;2.87;;;8.80;99.90;;;;;;4975990;28;20122;-30
2021/12/18 13:09:52;;;;;;;11.50;2.63;;;8.80;99.90;;;;;;4975058;28;20178;-30
2021/12/18 13:12:18;;;;;;;9.70;3.23;;;8.80;99.90;;;;;;4960537;28;20042;-30
2021/12/18 13:14:45;;;;;;;12.50;3.00;;;8.90;99.90;;;;;;4974150;28;20078;-30
2021/12/18 13:17:20;;;;;;;9.33;2.87;;;8.80;99.90;;;;;;4957815;28;20588;-30
2021/12/18 13:19:58;;;;;;;9.83;2.40;;;8.80;99.90;;;;;;4973427;28;20053;-30
2021/12/18 13:22:29;;;;;;;13.10;2.97;;;8.80;99.90;;;;;;4975128;28;20062;-31
2021/12/18 13:25:10;;;;;;;14.03;2.83;;;8.80;99.90;;;;;;4975330;28;20117;-30
2021/12/18 13:27:38;;;;;;;9.50;2.83;;;8.80;99.90;;;;;;4961401;28;20585;-30
2021/12/18 13:30:20;;;;;;;9.93;2.80;;;8.80;99.90;;;;;;4948241;28;20593;-30
2021/12/18 13:33:00;;;;;;;12.50;2.97;;;8.80;99.90;;;;;;4975389;28;20542;-30
2021/12/18 13:35:29;;;;;;;9.23;2.70;;;8.80;99.90;;;;;;4977681;28;20035;-30
2021/12/18 13:37:58;;;;;;;10.27;2.70;;;8.80;99.90;;;;;;4979712;28;20050;-30
2021/12/18 13:40:25;;;;;;;11.83;3.47;;;8.80;99.90;;;;;;4979147;28;20446;-30